createdAt,value
2018-10-12T00:00:52.521Z,17.50
2018-10-12T00:03:19.706Z,17.77
2018-10-12T00:05:47.152Z,17.63
2018-10-12T00:08:14.265Z,17.23
2018-10-12T00:10:41.432Z,17.87
2018-10-12T00:13:08.503Z,16.70
2018-10-12T00:15:35.531Z,18.63
2018-10-12T00:18:02.724Z,17.20
2018-10-12T00:20:29.833Z,16.80
2018-10-12T00:22:56.940Z,18.33
2018-10-12T00:25:24.170Z,17.63
2018-10-12T00:27:51.322Z,17.37
2018-10-12T00:30:18.365Z,17.93
2018-10-12T00:32:45.565Z,17.93
2018-10-12T00:35:13.140Z,17.50
2018-10-12T00:37:40.364Z,17.67
2018-10-12T00:40:07.471Z,18.03
2018-10-12T00:42:34.588Z,18.53
2018-10-12T00:45:01.711Z,18.20
2018-10-12T00:47:28.747Z,17.77
2018-10-12T00:49:55.963Z,18.77
2018-10-12T00:52:23.005Z,18.70
2018-10-12T00:54:50.130Z,18.13
2018-10-12T00:57:17.275Z,18.37
2018-10-12T00:59:44.427Z,19.03
2018-10-12T01:02:11.951Z,19.23
2018-10-12T01:04:39.063Z,17.60
2018-10-12T01:07:06.156Z,19.13
2018-10-12T01:09:33.207Z,18.37
2018-10-12T01:12:06.072Z,19.20
2018-10-12T01:14:33.143Z,19.10
2018-10-12T01:17:00.172Z,19.03
2018-10-12T01:19:27.211Z,18.33
2018-10-12T01:21:54.243Z,18.90
2018-10-12T01:24:21.267Z,21.43
2018-10-12T01:26:48.548Z,20.53
2018-10-12T01:29:15.615Z,19.93
2018-10-12T01:31:42.638Z,20.83
2018-10-12T01:34:10.273Z,22.70
2018-10-12T01:36:37.372Z,19.73
2018-10-12T01:39:04.920Z,20.63
2018-10-12T01:41:31.993Z,19.70
2018-10-12T01:43:59.169Z,20.10
2018-10-12T01:46:26.184Z,20.80
2018-10-12T01:48:53.476Z,20.47
2018-10-12T01:51:20.503Z,20.03
2018-10-12T01:53:47.527Z,20.57
2018-10-12T01:56:14.823Z,21.70
2018-10-12T01:58:41.931Z,21.00
2018-10-12T02:01:09.078Z,19.80
2018-10-12T02:03:36.144Z,20.60
2018-10-12T02:06:03.167Z,20.80
2018-10-12T02:08:30.195Z,19.70
2018-10-12T02:10:57.321Z,21.03
2018-10-12T02:13:24.420Z,21.20
2018-10-12T02:15:51.509Z,20.30
2018-10-12T02:18:18.907Z,20.90
2018-10-12T02:20:45.936Z,21.20
2018-10-12T02:23:13.008Z,20.33
2018-10-12T02:25:40.423Z,21.30
2018-10-12T02:28:07.892Z,22.70
2018-10-12T02:30:34.997Z,21.90
2018-10-12T02:33:02.040Z,21.87
2018-10-12T02:35:29.099Z,22.53
2018-10-12T02:37:56.127Z,21.50
2018-10-12T02:40:23.657Z,21.70
2018-10-12T02:42:50.788Z,21.00
2018-10-12T02:45:18.069Z,21.57
2018-10-12T02:47:45.533Z,21.37
2018-10-12T02:50:12.596Z,21.80
2018-10-12T02:52:39.615Z,21.40
2018-10-12T02:55:06.752Z,22.47
2018-10-12T02:57:34.016Z,22.77
2018-10-12T03:00:01.070Z,22.40
2018-10-12T03:02:28.108Z,23.17
2018-10-12T03:04:55.294Z,21.70
2018-10-12T03:07:22.366Z,22.33
2018-10-12T03:09:49.587Z,21.77
2018-10-12T03:12:16.686Z,21.37
2018-10-12T03:14:43.842Z,22.43
2018-10-12T03:17:10.968Z,23.50
2018-10-12T03:19:38.103Z,22.40
2018-10-12T03:22:05.168Z,23.50
2018-10-12T03:24:32.373Z,23.27
2018-10-12T03:26:59.560Z,21.63
2018-10-12T03:29:26.708Z,22.93
2018-10-12T03:31:53.997Z,22.47
2018-10-12T03:34:21.028Z,24.77
2018-10-12T03:36:48.068Z,23.40
2018-10-12T03:39:15.225Z,24.27
2018-10-12T03:41:42.364Z,22.27
2018-10-12T03:44:09.410Z,23.50
2018-10-12T03:46:36.496Z,23.13
2018-10-12T03:49:03.873Z,23.60
2018-10-12T03:51:30.956Z,24.13
2018-10-12T03:53:58.359Z,24.23
2018-10-12T03:56:25.465Z,22.80
2018-10-12T03:58:52.524Z,23.23
2018-10-12T04:01:20.149Z,25.57
2018-10-12T04:03:47.316Z,23.93
2018-10-12T04:06:14.428Z,26.90
2018-10-12T04:08:41.989Z,24.93
2018-10-12T04:11:09.030Z,24.80
2018-10-12T04:13:36.084Z,23.43
2018-10-12T04:16:03.496Z,25.23
2018-10-12T04:18:30.701Z,24.70
2018-10-12T04:20:57.736Z,26.17
2018-10-12T04:23:25.319Z,25.90
2018-10-12T04:25:52.644Z,26.60
2018-10-12T04:28:20.257Z,26.90
2018-10-12T04:30:47.348Z,26.27
2018-10-12T04:33:14.384Z,27.30
2018-10-12T04:35:41.500Z,25.90
2018-10-12T04:38:08.584Z,27.30
2018-10-12T04:41:21.122Z,26.80
2018-10-12T04:43:49.905Z,26.63
2018-10-12T04:46:18.952Z,27.17
2018-10-12T04:48:46.628Z,25.60
2018-10-12T04:51:15.704Z,25.90
2018-10-12T04:53:42.770Z,27.03
2018-10-12T04:56:11.184Z,27.00
2018-10-12T04:58:39.348Z,25.73
2018-10-12T05:01:06.533Z,27.17
2018-10-12T05:03:33.866Z,26.57
2018-10-12T05:06:01.009Z,27.63
2018-10-12T05:08:28.268Z,25.93
2018-10-12T05:10:55.289Z,26.30
2018-10-12T05:13:23.205Z,26.00
2018-10-12T05:15:50.382Z,26.67
2018-10-12T05:18:17.509Z,25.80
2018-10-12T05:20:44.958Z,26.47
2018-10-12T05:23:11.996Z,25.17
2018-10-12T05:25:39.328Z,25.57
2018-10-12T05:28:06.713Z,26.43
2018-10-12T05:30:33.756Z,25.87
2018-10-12T05:33:00.780Z,25.30
2018-10-12T05:35:27.851Z,27.00
2018-10-12T05:37:54.939Z,24.90
2018-10-12T05:40:23.887Z,26.13
2018-10-12T05:42:51.354Z,26.90
2018-10-12T05:45:18.357Z,27.30
2018-10-12T05:47:45.385Z,26.73
2018-10-12T05:50:12.504Z,27.30
2018-10-12T05:52:39.567Z,26.97
2018-10-12T05:55:06.979Z,28.60
2018-10-12T05:57:34.397Z,26.70
2018-10-12T06:00:01.879Z,25.97
2018-10-12T06:02:29.506Z,26.50
2018-10-12T06:04:56.584Z,28.30
2018-10-12T06:07:23.621Z,27.23
2018-10-12T06:09:50.812Z,27.13
2018-10-12T06:12:18.096Z,26.20
2018-10-12T06:14:45.308Z,26.37
2018-10-12T06:17:12.336Z,27.33
2018-10-12T06:19:39.397Z,26.30
2018-10-12T06:22:06.536Z,28.60
2018-10-12T06:24:33.563Z,26.90
2018-10-12T06:27:00.626Z,27.80
2018-10-12T06:29:27.657Z,26.67
2018-10-12T06:31:54.687Z,27.13
2018-10-12T06:34:22.012Z,26.90
2018-10-12T06:36:49.116Z,26.40
2018-10-12T06:39:16.144Z,29.70
2018-10-12T06:41:43.348Z,27.03
2018-10-12T06:44:10.340Z,26.50
2018-10-12T06:46:37.425Z,31.23
2018-10-12T06:49:05.096Z,27.90
2018-10-12T06:51:32.115Z,27.70
2018-10-12T06:53:59.223Z,24.80
2018-10-12T06:56:26.448Z,26.60
2018-10-12T06:58:53.497Z,27.27
2018-10-12T07:01:20.536Z,26.20
2018-10-12T07:03:47.891Z,24.60
2018-10-12T07:06:14.923Z,25.27
2018-10-12T07:08:42.035Z,25.50
2018-10-12T07:11:09.756Z,25.43
2018-10-12T07:13:38.216Z,25.70
2018-10-12T07:16:05.187Z,25.10
2018-10-12T07:18:32.744Z,25.70
2018-10-12T07:20:59.953Z,24.40
2018-10-12T07:23:26.996Z,23.30
2018-10-12T07:25:54.104Z,24.57
2018-10-12T07:28:21.092Z,23.87
2018-10-12T07:30:48.144Z,23.27
2018-10-12T07:33:15.447Z,23.50
2018-10-12T07:35:42.484Z,23.93
2018-10-12T07:38:09.606Z,24.30
2018-10-12T07:40:36.873Z,23.20
2018-10-12T07:43:03.904Z,23.00
2018-10-12T07:45:31.455Z,22.70
2018-10-12T07:47:58.718Z,21.30
2018-10-12T07:50:25.778Z,21.63
2018-10-12T07:52:52.918Z,21.60
2018-10-12T07:55:20.299Z,22.60
2018-10-12T07:57:47.419Z,22.50
2018-10-12T08:00:14.550Z,20.40
2018-10-12T08:02:41.643Z,21.97
2018-10-12T08:05:08.764Z,20.93
2018-10-12T08:07:35.804Z,21.07
2018-10-12T08:10:03.216Z,21.63
2018-10-12T08:12:30.325Z,21.07
2018-10-12T08:14:57.471Z,20.67
2018-10-12T08:17:24.760Z,18.50
2018-10-12T08:19:51.843Z,20.30
2018-10-12T08:22:18.888Z,19.80
2018-10-12T08:24:45.951Z,19.57
2018-10-12T08:27:14.042Z,19.03
2018-10-12T08:29:41.129Z,18.50
2018-10-12T08:32:08.434Z,18.70
2018-10-12T08:34:35.487Z,18.70
2018-10-12T08:37:02.520Z,18.70
2018-10-12T08:39:29.611Z,20.87
2018-10-12T08:41:56.824Z,19.87
2018-10-12T08:44:23.808Z,20.13
2018-10-12T08:46:51.284Z,19.60
2018-10-12T08:49:18.312Z,19.60
2018-10-12T08:51:45.345Z,20.07
2018-10-12T08:54:12.623Z,19.00
2018-10-12T08:56:39.827Z,19.03
2018-10-12T08:59:06.981Z,18.80
2018-10-12T09:01:34.023Z,20.00
2018-10-12T09:04:01.060Z,18.70
2018-10-12T09:06:28.120Z,18.10
2018-10-12T09:08:55.532Z,18.30
2018-10-12T09:11:22.604Z,19.10
2018-10-12T09:13:49.684Z,18.97
2018-10-12T09:16:17.319Z,20.67
2018-10-12T09:18:44.392Z,18.93
2018-10-12T09:21:11.416Z,18.00
2018-10-12T09:23:38.452Z,18.03
2018-10-12T09:26:05.579Z,17.43
2018-10-12T09:28:32.648Z,16.83
2018-10-12T09:31:00.086Z,18.70
2018-10-12T09:33:27.236Z,29.30
2018-10-12T09:35:54.564Z,17.37
2018-10-12T09:38:21.776Z,17.13
2018-10-12T09:40:48.821Z,19.73
2018-10-12T09:43:15.981Z,17.00
2018-10-12T09:45:43.436Z,18.93
2018-10-12T09:48:10.496Z,17.07
2018-10-12T09:50:37.571Z,17.30
2018-10-12T09:53:04.844Z,16.97
2018-10-12T09:55:31.900Z,17.73
2018-10-12T09:57:59.092Z,19.90
2018-10-12T10:00:32.131Z,17.40
2018-10-12T10:03:05.293Z,17.43
2018-10-12T10:05:32.374Z,18.77
2018-10-12T10:07:59.505Z,18.93
2018-10-12T10:10:26.527Z,18.23
2018-10-12T10:12:53.689Z,17.77
2018-10-12T10:15:20.953Z,17.27
2018-10-12T10:17:48.021Z,18.63
2018-10-12T10:20:15.299Z,17.13
2018-10-12T10:22:42.343Z,17.90
2018-10-12T10:25:09.405Z,16.90
2018-10-12T10:27:36.475Z,15.57
2018-10-12T10:30:03.499Z,16.83
2018-10-12T10:32:30.527Z,17.13
2018-10-12T10:34:57.571Z,17.00
2018-10-12T10:37:24.620Z,17.43
2018-10-12T10:39:51.639Z,16.80
2018-10-12T10:42:19.027Z,16.93
2018-10-12T10:44:46.056Z,17.47
2018-10-12T10:47:13.083Z,17.87
2018-10-12T10:49:40.459Z,16.97
2018-10-12T10:52:07.605Z,16.90
2018-10-12T10:54:34.635Z,17.90
2018-10-12T10:57:04.168Z,19.00
2018-10-12T10:59:31.871Z,17.20
2018-10-12T11:01:58.904Z,17.27
2018-10-12T11:04:26.188Z,18.37
2018-10-12T11:06:53.212Z,17.10
2018-10-12T11:09:20.229Z,18.27
2018-10-12T11:11:47.272Z,18.40
2018-10-12T11:14:14.296Z,18.70
2018-10-12T11:16:41.428Z,17.97
2018-10-12T11:19:08.687Z,17.00
2018-10-12T11:21:35.696Z,17.20
2018-10-12T11:24:02.743Z,16.40
2018-10-12T11:26:30.246Z,17.07
2018-10-12T11:28:57.243Z,16.23
2018-10-12T11:31:24.273Z,18.87
2018-10-12T11:33:51.629Z,16.20
2018-10-12T11:36:18.691Z,15.20
2018-10-12T11:38:45.785Z,15.20
2018-10-12T11:41:12.816Z,16.10
2018-10-12T11:43:40.340Z,15.93
2018-10-12T11:46:07.368Z,15.70
2018-10-12T11:48:34.688Z,16.33
2018-10-12T11:51:01.958Z,16.80
2018-10-12T11:53:29.098Z,14.87
2018-10-12T11:55:56.484Z,15.20
2018-10-12T11:58:23.872Z,17.40
2018-10-12T12:00:52.469Z,18.50
2018-10-12T12:03:19.623Z,16.10
2018-10-12T12:05:46.643Z,15.97
2018-10-12T12:08:13.689Z,16.33
2018-10-12T12:10:41.227Z,16.30
2018-10-12T12:13:08.343Z,18.90
2018-10-12T12:15:35.663Z,17.67
2018-10-12T12:18:02.695Z,16.57
2018-10-12T12:20:29.725Z,16.17
2018-10-12T12:22:56.847Z,14.00
2018-10-12T12:25:24.444Z,13.90
2018-10-12T12:27:51.907Z,14.67
2018-10-12T12:30:18.942Z,13.80
2018-10-12T12:32:46.040Z,14.13
2018-10-12T12:35:13.414Z,13.00
2018-10-12T12:37:40.307Z,12.73
2018-10-12T12:40:07.873Z,13.00
2018-10-12T12:42:34.888Z,14.10
2018-10-12T12:45:02.037Z,14.23
2018-10-12T12:47:29.230Z,14.20
2018-10-12T12:49:56.164Z,13.50
2018-10-12T12:52:23.257Z,13.77
2018-10-12T12:54:50.617Z,13.50
2018-10-12T12:57:17.592Z,12.73
2018-10-12T12:59:44.633Z,13.43
2018-10-12T13:02:11.679Z,12.43
2018-10-12T13:04:38.718Z,13.97
2018-10-12T13:07:05.872Z,13.17
2018-10-12T13:09:33.261Z,14.73
2018-10-12T13:12:00.363Z,14.43
2018-10-12T13:14:27.756Z,13.67
2018-10-12T13:16:55.209Z,13.43
2018-10-12T13:19:22.336Z,13.30
2018-10-12T13:21:49.384Z,14.70
2018-10-12T13:24:16.915Z,15.60
2018-10-12T13:26:44.004Z,12.90
2018-10-12T13:29:11.135Z,12.57
2018-10-12T13:31:38.217Z,13.30
2018-10-12T13:34:05.252Z,13.87
2018-10-12T13:36:32.315Z,15.20
2018-10-12T13:38:59.671Z,15.13
2018-10-12T13:41:26.728Z,16.50
2018-10-12T13:43:53.751Z,13.60
2018-10-12T13:46:20.796Z,15.00
2018-10-12T13:48:47.836Z,13.20
2018-10-12T13:51:15.009Z,15.60
2018-10-12T13:53:42.463Z,15.00
2018-10-12T13:56:09.499Z,16.23
2018-10-12T13:58:36.621Z,14.20
2018-10-12T14:01:04.333Z,12.53
2018-10-12T14:03:31.378Z,15.70
2018-10-12T14:05:58.755Z,15.10
2018-10-12T14:08:25.785Z,14.03
2018-10-12T14:10:52.877Z,14.23
2018-10-12T14:13:20.238Z,16.07
2018-10-12T14:15:47.630Z,16.60
2018-10-12T14:18:14.828Z,18.27
2018-10-12T14:20:41.791Z,16.00
2018-10-12T14:23:09.088Z,17.93
2018-10-12T14:25:36.371Z,16.23
2018-10-12T14:28:03.432Z,16.10
2018-10-12T14:30:30.504Z,15.53
2018-10-12T14:32:57.542Z,17.50
2018-10-12T14:35:24.709Z,17.73
2018-10-12T14:37:51.818Z,18.30
2018-10-12T14:40:18.777Z,16.00
2018-10-12T14:42:45.844Z,18.40
2018-10-12T14:45:13.223Z,17.70
2018-10-12T14:47:40.260Z,17.17
2018-10-12T14:50:07.535Z,17.27
2018-10-12T14:52:34.661Z,17.33
2018-10-12T14:55:01.687Z,18.80
2018-10-12T14:57:28.725Z,18.97
2018-10-12T14:59:55.848Z,17.77
2018-10-12T15:02:22.896Z,18.10
2018-10-12T15:04:49.925Z,18.37
2018-10-12T15:07:17.391Z,19.50
2018-10-12T15:09:44.465Z,22.87
2018-10-12T15:12:11.503Z,18.83
2018-10-12T15:14:44.661Z,18.43
2018-10-12T15:17:11.743Z,19.63
2018-10-12T15:19:39.184Z,18.00
2018-10-12T15:22:06.636Z,17.90
2018-10-12T15:24:33.660Z,17.67
2018-10-12T15:27:00.836Z,21.00
2018-10-12T15:29:27.889Z,18.17
2018-10-12T15:31:55.023Z,16.83
2018-10-12T15:34:22.053Z,17.63
2018-10-12T15:36:49.524Z,17.53
2018-10-12T15:39:16.559Z,19.07
2018-10-12T15:41:43.584Z,21.90
2018-10-12T15:44:10.647Z,19.00
2018-10-12T15:46:37.779Z,22.03
2018-10-12T15:49:04.808Z,20.40
2018-10-12T15:51:32.031Z,23.80
2018-10-12T15:53:58.998Z,22.30
2018-10-12T15:56:26.075Z,20.13
2018-10-12T15:58:53.123Z,20.03
2018-10-12T16:01:20.212Z,21.63
2018-10-12T16:03:47.244Z,23.00
2018-10-12T16:06:14.774Z,23.00
2018-10-12T16:08:41.825Z,22.80
2018-10-12T16:11:08.878Z,22.63
2018-10-12T16:13:36.264Z,21.90
2018-10-12T16:16:03.374Z,21.70
2018-10-12T16:18:30.404Z,28.73
2018-10-12T16:20:57.820Z,26.40
2018-10-12T16:23:24.832Z,24.80
2018-10-12T16:26:26.322Z,26.53
2018-10-12T16:28:53.459Z,26.70
2018-10-12T16:31:20.477Z,27.50
2018-10-12T16:33:47.539Z,28.63
2018-10-12T16:36:14.621Z,31.97
2018-10-12T16:38:41.615Z,30.20
2018-10-12T16:41:08.916Z,27.23
2018-10-12T16:43:36.064Z,25.47
2018-10-12T16:46:03.189Z,28.07
2018-10-12T16:48:30.675Z,28.70
2018-10-12T16:50:57.691Z,31.83
2018-10-12T16:53:24.839Z,28.97
2018-10-12T16:55:51.919Z,35.17
2018-10-12T16:58:19.079Z,33.10
2018-10-12T17:00:45.980Z,37.63
2018-10-12T17:03:13.364Z,29.43
2018-10-12T17:05:40.397Z,29.83
2018-10-12T17:08:07.429Z,32.10
2018-10-12T17:10:35.047Z,31.73
2018-10-12T17:13:02.160Z,36.23
2018-10-12T17:15:29.337Z,33.30
2018-10-12T17:17:57.425Z,33.53
2018-10-12T17:20:24.560Z,33.17
2018-10-12T17:22:51.824Z,35.23
2018-10-12T17:25:18.956Z,32.27
2018-10-12T17:27:46.104Z,38.53
2018-10-12T17:30:13.238Z,34.97
2018-10-12T17:32:40.655Z,38.57
2018-10-12T17:35:07.696Z,37.27
2018-10-12T17:37:34.719Z,32.03
2018-10-12T17:40:02.001Z,35.50
2018-10-12T17:42:29.017Z,31.93
2018-10-12T17:44:56.115Z,31.70
2018-10-12T17:47:23.163Z,34.10
2018-10-12T17:49:50.208Z,36.40
2018-10-12T17:52:17.276Z,37.80
2018-10-12T17:54:44.743Z,32.33
2018-10-12T17:57:11.807Z,37.00
2018-10-12T17:59:38.844Z,42.53
2018-10-12T18:02:06.195Z,45.80
2018-10-12T18:04:33.463Z,45.60
2018-10-12T18:07:00.548Z,47.13
2018-10-12T18:09:27.853Z,49.40
2018-10-12T18:11:54.872Z,48.40
2018-10-12T18:14:22.019Z,47.07
2018-10-12T18:16:49.084Z,46.40
2018-10-12T18:19:16.747Z,48.40
2018-10-12T18:21:43.880Z,45.80
2018-10-12T18:24:11.201Z,47.80
2018-10-12T18:26:38.305Z,44.37
2018-10-12T18:29:05.352Z,45.57
2018-10-12T18:31:32.479Z,43.00
2018-10-12T18:33:59.516Z,43.13
2018-10-12T18:36:26.674Z,44.37
2018-10-12T18:38:53.922Z,39.53
2018-10-12T18:41:20.996Z,41.17
2018-10-12T18:43:48.044Z,41.80
2018-10-12T18:46:15.111Z,39.20
2018-10-12T18:48:42.158Z,42.70
2018-10-12T18:51:09.197Z,41.60
2018-10-12T18:53:36.404Z,42.37
2018-10-12T18:56:03.456Z,38.30
2018-10-12T18:58:30.483Z,35.67
2018-10-12T19:00:57.807Z,37.80
2018-10-12T19:03:24.884Z,36.63
2018-10-12T19:05:51.898Z,36.13
2018-10-12T19:08:18.947Z,34.47
2018-10-12T19:10:45.980Z,38.50
2018-10-12T19:13:13.033Z,41.93
2018-10-12T19:15:40.312Z,35.80
2018-10-12T19:18:07.360Z,38.27
2018-10-12T19:20:34.392Z,35.80
2018-10-12T19:23:01.849Z,36.63
2018-10-12T19:25:28.894Z,40.60
2018-10-12T19:27:55.918Z,38.00
2018-10-12T19:30:23.095Z,39.80
2018-10-12T19:32:50.172Z,38.07
2018-10-12T19:35:17.366Z,36.73
2018-10-12T19:37:44.846Z,36.57
2018-10-12T19:40:11.944Z,35.20
2018-10-12T19:42:39.300Z,37.77
2018-10-12T19:45:06.722Z,39.23
2018-10-12T19:47:34.835Z,35.77
2018-10-12T19:50:01.858Z,34.57
2018-10-12T19:52:28.967Z,34.73
2018-10-12T19:54:56.123Z,33.30
2018-10-12T19:57:23.240Z,33.90
2018-10-12T19:59:50.535Z,33.40
2018-10-12T20:02:17.576Z,33.50
2018-10-12T20:04:44.676Z,32.93
2018-10-12T20:07:12.092Z,34.23
2018-10-12T20:09:39.112Z,33.37
2018-10-12T20:12:06.144Z,34.30
2018-10-12T20:14:33.215Z,34.63
2018-10-12T20:17:00.364Z,33.33
2018-10-12T20:19:27.420Z,34.83
2018-10-12T20:21:54.635Z,35.20
2018-10-12T20:24:21.687Z,34.90
2018-10-12T20:26:48.759Z,33.90
2018-10-12T20:29:16.236Z,33.27
2018-10-12T20:31:43.377Z,33.33
2018-10-12T20:34:10.335Z,34.27
2018-10-12T20:36:37.448Z,34.13
2018-10-12T20:39:05.809Z,33.07
2018-10-12T20:41:32.808Z,35.20
2018-10-12T20:43:59.903Z,34.00
2018-10-12T20:46:26.948Z,32.60
2018-10-12T20:48:54.086Z,35.17
2018-10-12T20:51:21.173Z,34.30
2018-10-12T20:53:48.241Z,33.20
2018-10-12T20:56:15.303Z,32.43
2018-10-12T20:58:42.652Z,33.90
2018-10-12T21:01:09.692Z,34.50
2018-10-12T21:03:36.727Z,34.10
2018-10-12T21:06:04.004Z,33.73
2018-10-12T21:08:31.059Z,36.13
2018-10-12T21:10:58.092Z,36.47
2018-10-12T21:13:25.136Z,34.70
2018-10-12T21:15:52.284Z,37.27
2018-10-12T21:18:19.352Z,37.73
2018-10-12T21:20:46.705Z,36.47
2018-10-12T21:23:13.831Z,36.90
2018-10-12T21:25:40.989Z,35.97
2018-10-12T21:28:08.369Z,34.87
2018-10-12T21:30:35.487Z,34.17
2018-10-12T21:33:02.605Z,34.00
2018-10-12T21:35:29.667Z,33.30
2018-10-12T21:37:56.699Z,33.10
2018-10-12T21:40:23.805Z,35.50
2018-10-12T21:42:51.568Z,34.40
2018-10-12T21:45:18.643Z,32.30
2018-10-12T21:47:45.707Z,34.50
2018-10-12T21:50:13.120Z,34.50
2018-10-12T21:52:40.264Z,31.43
2018-10-12T21:55:07.326Z,34.27
2018-10-12T21:57:34.836Z,33.33
2018-10-12T22:00:02.042Z,34.10
2018-10-12T22:02:28.956Z,34.90
2018-10-12T22:04:56.272Z,34.10
2018-10-12T22:07:23.458Z,35.50
2018-10-12T22:09:50.595Z,37.33
2018-10-12T22:12:17.736Z,40.40
2018-10-12T22:14:45.517Z,38.47
2018-10-12T22:17:12.877Z,37.50
2018-10-12T22:19:40.053Z,36.33
2018-10-12T22:22:07.128Z,36.63
2018-10-12T22:24:34.166Z,35.63
2018-10-12T22:27:01.302Z,34.90
2018-10-12T22:29:28.436Z,33.33
2018-10-12T22:31:55.684Z,35.47
2018-10-12T22:34:22.889Z,34.93
2018-10-12T22:36:50.000Z,36.23
2018-10-12T22:39:17.171Z,33.30
2018-10-12T22:41:44.204Z,35.03
2018-10-12T22:44:11.308Z,35.07
2018-10-12T22:46:38.340Z,33.63
2018-10-12T22:49:06.044Z,33.27
2018-10-12T22:51:33.264Z,32.60
2018-10-12T22:54:00.289Z,32.93
2018-10-12T22:56:27.427Z,33.33
2018-10-12T22:58:54.636Z,32.30
2018-10-12T23:01:21.705Z,34.43
2018-10-12T23:03:49.148Z,31.87
2018-10-12T23:06:16.192Z,32.30
2018-10-12T23:08:43.496Z,32.10
2018-10-12T23:11:11.338Z,32.50
2018-10-12T23:13:38.543Z,31.13
2018-10-12T23:16:05.648Z,32.23
2018-10-12T23:18:32.755Z,32.10
2018-10-12T23:20:59.996Z,33.10
2018-10-12T23:23:27.391Z,34.17
2018-10-12T23:25:55.238Z,33.30
2018-10-12T23:28:22.392Z,33.20
2018-10-12T23:30:49.440Z,33.87
2018-10-12T23:33:22.532Z,32.43
2018-10-12T23:35:49.726Z,31.87
2018-10-12T23:38:16.964Z,31.87
2018-10-12T23:40:44.495Z,31.93
2018-10-12T23:43:11.591Z,31.03
2018-10-12T23:45:38.624Z,32.33
2018-10-12T23:48:06.044Z,30.77
2018-10-12T23:50:33.228Z,30.33
2018-10-12T23:53:00.244Z,32.13
2018-10-12T23:55:27.291Z,31.00
2018-10-12T23:57:54.340Z,32.97
